Wednesday, November 22, 2017, 9:07 AM GMT
Back to Local

CYSJ, Saint John, N. B.

Location: , , Canada Lat: 45.333
Local Time: 9:07 AM GMT ( 9:07 GMT) Lon: -65.883
Time Zone: GMT Elev: 337 ft

Show me the last for .
Show Coded

Time T Td Feel RH Dir Speed Gust Alt SLP Vis Weather Sky Remarks
2017-11-22 08:00 46 45 42 93 210° 8 - 30.00 30.02 8 OVC021 None
2017-11-22 07:00 48 45 45 87 220° 7 - 30.00 30.02 10 OVC021 None
2017-11-22 06:00 48 46 42 93 220° 10 18 30.01 30.02 10 OVC022 None
2017-11-22 05:00 50 45 46 81 220° 12 - 30.01 30.03 10 BKN022 OVC180 None
2017-11-22 04:00 50 46 43 87 220° 15 23 30.01 30.03 10 BKN024 OVC180 None
2017-11-22 03:00 50 46 43 87 220° 20 25 30.00 30.01 10 SCT015 OVC026 None
2017-11-22 02:00 50 46 42 87 210° 18 28 29.99 30.01 10 BKN025 OVC030 None
2017-11-22 01:00 50 45 42 81 210° 20 29 30.00 30.01 10 OVC023 None
2017-11-22 00:00 48 45 40 87 200° 17 29 30.00 30.02 12 BKN024 None
2017-11-21 23:00 48 43 40 81 200° 16 24 30.00 30.02 15 FEW020 SCT030 None
2017-11-21 22:00 46 39 38 75 210° 16 23 30.01 30.03 15 SCT025 None
2017-11-21 21:00 43 37 37 81 160° 10 - 30.01 30.03 15 BKN022 BKN220 None
2017-11-21 20:00 41 37 34 86 190° 13 - 30.03 30.05 15 BKN016 OVC025 None
2017-11-21 19:00 37 32 30 80 190° 12 - 30.04 30.06 15 OVC020 None
2017-11-21 18:00 36 27 26 69 200° 15 - 30.05 30.07 15 BKN020 BKN100 None
2017-11-21 17:00 32 19 23 59 200° 12 - 30.07 30.09 15 FEW020 FEW100 SCT240 None
2017-11-21 16:00 32 12 26 43 190° 7 - 30.09 30.12 15 FEW040 SCT150 BKN240 None
2017-11-21 15:00 25 7 18 45 270° 6 - 30.11 30.14 15 FEW150 SCT240 None
2017-11-21 14:00 23 7 17 49 310° 5 - 30.10 30.13 15 FEW240 None
2017-11-21 13:00 19 7 11 57 250° 6 - 30.11 30.13 15 FEW240 None
2017-11-21 12:00 16 7 10 66 310° 3 - 30.08 30.11 15 FEW025 FEW240 None
2017-11-21 11:00 16 5 3 61 300° 10 - 30.05 30.07 15 FEW040 FEW240 None
2017-11-21 10:00 16 5 6 61 280° 7 - 30.05 30.08 15 CLR None

Support USWX by starting your Amazon purchase here.